Time;durP1;ratioP1;P1;durP2;ratioP2;P2;SDS_P1;SDS_P2;PMS_P1;PMS_P2;Temp;Humidity;BMP_temperature;BMP_pressure;BME280_temperature;BME280_humidity;BME280_pressure;Samples;Min_cycle;Max_cycle;Signal;HPM_P1;HPM_P2
2022/03/09 00:02:56;;;;;;;27.17;9.37;;;;;;;;;;6177153;23;20175;-89
2022/03/09 00:06:01;;;;;;;28.40;9.40;;;;;;;;;;6176826;23;20172;-88
2022/03/09 00:09:06;;;;;;;22.67;9.17;;;;;;;;;;6163637;23;20270;-89
2022/03/09 00:12:12;;;;;;;22.20;8.97;;;;;;;;;;6162617;23;20172;-88
2022/03/09 00:15:18;;;;;;;23.80;9.67;;;;;;;;;;6163061;23;20624;-89
2022/03/09 00:18:23;;;;;;;19.90;8.60;;;;;;;;;;6164886;23;20631;-88
2022/03/09 00:21:29;;;;;;;23.97;8.53;;;;;;;;;;6163330;23;20173;-90
2022/03/09 00:24:35;;;;;;;21.13;9.10;;;;;;;;;;6165161;23;20164;-90
2022/03/09 00:27:42;;;;;;;25.87;9.07;;;;;;;;;;6163439;23;20242;-88
2022/03/09 00:30:47;;;;;;;19.87;8.80;;;;;;;;;;6164902;23;20172;-90
2022/03/09 00:33:51;;;;;;;22.53;8.53;;;;;;;;;;6162380;23;20193;-89
2022/03/09 00:36:56;;;;;;;31.23;9.97;;;;;;;;;;6163513;23;20171;-89
2022/03/09 00:40:01;;;;;;;20.10;8.53;;;;;;;;;;6164249;23;20179;-88
2022/03/09 00:43:09;;;;;;;26.73;9.20;;;;;;;;;;6163151;23;20173;-88
2022/03/09 00:46:14;;;;;;;21.90;8.30;;;;;;;;;;6163811;23;20244;-88
2022/03/09 00:49:19;;;;;;;23.43;7.93;;;;;;;;;;6165255;23;20173;-89
2022/03/09 00:52:24;;;;;;;23.10;9.20;;;;;;;;;;6163762;23;20191;-89
2022/03/09 00:55:29;;;;;;;26.37;9.63;;;;;;;;;;6161838;23;20192;-91
2022/03/09 00:58:35;;;;;;;22.70;9.27;;;;;;;;;;6162078;23;20188;-89
2022/03/09 01:01:40;;;;;;;19.90;8.67;;;;;;;;;;6161683;23;20643;-88
2022/03/09 01:04:47;;;;;;;21.53;9.03;;;;;;;;;;6162482;23;20289;-87
2022/03/09 01:07:52;;;;;;;23.63;9.00;;;;;;;;;;6163363;23;20172;-89
2022/03/09 01:10:57;;;;;;;24.67;9.57;;;;;;;;;;6162892;23;20171;-87
2022/03/09 01:14:04;;;;;;;20.93;9.13;;;;;;;;;;6163693;23;20192;-89
2022/03/09 01:17:09;;;;;;;22.17;8.70;;;;;;;;;;6163373;23;20180;-87
2022/03/09 01:20:14;;;;;;;22.40;8.90;;;;;;;;;;6163451;23;20177;-88
2022/03/09 01:23:19;;;;;;;19.60;8.50;;;;;;;;;;6162716;23;20188;-89
2022/03/09 01:26:28;;;;;;;23.63;8.73;;;;;;;;;;6162394;23;20184;-89
2022/03/09 01:29:35;;;;;;;21.70;9.60;;;;;;;;;;6162895;23;20248;-88
2022/03/09 01:32:40;;;;;;;19.90;8.70;;;;;;;;;;6164164;23;20171;-89
2022/03/09 01:35:45;;;;;;;17.53;8.40;;;;;;;;;;6163512;23;20264;-89
2022/03/09 01:38:50;;;;;;;21.77;9.27;;;;;;;;;;6164023;23;20223;-87
2022/03/09 01:41:56;;;;;;;25.17;9.93;;;;;;;;;;6164455;23;20164;-89
2022/03/09 01:45:03;;;;;;;24.83;8.90;;;;;;;;;;6162285;23;20208;-87
2022/03/09 01:48:08;;;;;;;20.63;8.87;;;;;;;;;;6162516;23;20192;-87
2022/03/09 01:51:13;;;;;;;19.17;8.40;;;;;;;;;;6162441;23;20212;-87
2022/03/09 01:54:18;;;;;;;20.70;8.43;;;;;;;;;;6162812;23;20192;-88
2022/03/09 01:57:24;;;;;;;20.50;9.47;;;;;;;;;;6163542;23;20289;-90
2022/03/09 02:00:31;;;;;;;21.10;9.13;;;;;;;;;;6163877;23;20624;-89
2022/03/09 02:03:37;;;;;;;21.00;8.43;;;;;;;;;;6163986;23;20172;-88
2022/03/09 02:06:43;;;;;;;19.20;8.27;;;;;;;;;;6162655;23;20169;-89
2022/03/09 02:09:47;;;;;;;22.07;8.77;;;;;;;;;;6163181;23;20196;-89
2022/03/09 02:12:52;;;;;;;20.67;7.57;;;;;;;;;;6162571;23;20164;-88
2022/03/09 02:15:59;;;;;;;21.80;8.60;;;;;;;;;;6162372;23;20258;-88
2022/03/09 02:19:04;;;;;;;23.00;9.87;;;;;;;;;;6164713;23;20177;-88
2022/03/09 02:22:12;;;;;;;20.23;8.47;;;;;;;;;;6164697;23;20288;-89
2022/03/09 02:25:19;;;;;;;23.53;8.53;;;;;;;;;;6163674;23;20168;-88
2022/03/09 02:28:23;;;;;;;15.70;7.43;;;;;;;;;;6163772;23;20167;-90
2022/03/09 02:31:28;;;;;;;19.90;8.60;;;;;;;;;;6165231;23;20176;-88
2022/03/09 02:34:33;;;;;;;23.93;8.53;;;;;;;;;;6164711;23;20204;-88
2022/03/09 02:37:38;;;;;;;19.97;8.50;;;;;;;;;;6165363;23;20636;-87
2022/03/09 02:40:45;;;;;;;20.33;8.73;;;;;;;;;;6163547;23;20248;-89
2022/03/09 02:43:50;;;;;;;21.37;8.90;;;;;;;;;;6163749;23;20236;-88
2022/03/09 02:46:55;;;;;;;24.23;8.90;;;;;;;;;;6163884;23;20774;-89
2022/03/09 02:50:00;;;;;;;22.57;9.67;;;;;;;;;;6164471;23;20240;-88
2022/03/09 02:53:05;;;;;;;26.23;10.17;;;;;;;;;;6165237;23;20176;-89
2022/03/09 02:56:11;;;;;;;22.80;8.50;;;;;;;;;;6163560;23;20192;-89
2022/03/09 02:59:17;;;;;;;23.40;9.33;;;;;;;;;;6164090;23;20185;-88
2022/03/09 03:02:22;;;;;;;26.20;9.27;;;;;;;;;;6162348;23;20180;-91
2022/03/09 03:05:27;;;;;;;25.20;9.47;;;;;;;;;;6162892;23;20292;-89
2022/03/09 03:08:33;;;;;;;23.43;8.93;;;;;;;;;;6170304;23;20231;-89
2022/03/09 03:11:39;;;;;;;19.83;8.80;;;;;;;;;;6176216;23;20604;-89
2022/03/09 03:14:45;;;;;;;19.57;8.50;;;;;;;;;;6177150;23;20199;-89
2022/03/09 03:17:50;;;;;;;25.43;8.67;;;;;;;;;;6177678;23;20172;-88
2022/03/09 03:20:55;;;;;;;23.13;8.63;;;;;;;;;;6175705;23;20171;-88
2022/03/09 03:24:00;;;;;;;21.60;9.23;;;;;;;;;;6177356;23;20175;-86
2022/03/09 03:27:06;;;;;;;19.37;8.80;;;;;;;;;;6176581;23;20172;-89
2022/03/09 03:30:12;;;;;;;23.43;8.73;;;;;;;;;;6176021;23;20243;-88
2022/03/09 03:33:17;;;;;;;23.03;8.53;;;;;;;;;;6174393;23;20616;-90
2022/03/09 03:36:22;;;;;;;19.27;8.20;;;;;;;;;;6175078;23;20268;-88
2022/03/09 03:39:27;;;;;;;18.27;8.03;;;;;;;;;;6175608;23;20716;-88
2022/03/09 03:42:34;;;;;;;22.07;8.90;;;;;;;;;;6175179;23;20187;-89
2022/03/09 03:45:39;;;;;;;22.87;8.33;;;;;;;;;;6174731;23;20222;-87
2022/03/09 03:48:44;;;;;;;21.40;8.60;;;;;;;;;;6176521;23;20171;-89
2022/03/09 03:51:49;;;;;;;19.50;7.83;;;;;;;;;;6175239;23;20175;-88
2022/03/09 03:54:54;;;;;;;20.60;8.33;;;;;;;;;;6176492;23;20167;-89
2022/03/09 03:58:01;;;;;;;20.00;8.57;;;;;;;;;;6176098;23;20214;-86
2022/03/09 04:01:06;;;;;;;18.93;7.27;;;;;;;;;;6175076;23;20654;-88
2022/03/09 04:04:11;;;;;;;19.83;8.30;;;;;;;;;;6175708;23;20167;-88
2022/03/09 04:07:16;;;;;;;20.50;8.10;;;;;;;;;;6175428;23;20172;-87
2022/03/09 04:10:21;;;;;;;22.47;8.47;;;;;;;;;;6163442;23;20632;-90
2022/03/09 04:13:28;;;;;;;19.73;8.23;;;;;;;;;;6163670;23;20224;-89
2022/03/09 04:16:33;;;;;;;25.20;8.90;;;;;;;;;;6163159;23;20165;-89
2022/03/09 04:19:38;;;;;;;28.30;9.33;;;;;;;;;;6161803;23;20288;-86
2022/03/09 04:22:43;;;;;;;20.27;8.87;;;;;;;;;;6161879;23;20176;-89
2022/03/09 04:25:48;;;;;;;29.70;9.33;;;;;;;;;;6162139;23;20267;-88
2022/03/09 04:28:55;;;;;;;23.87;9.50;;;;;;;;;;6164281;23;20172;-88
2022/03/09 04:32:00;;;;;;;25.63;9.43;;;;;;;;;;6163768;23;20184;-89
2022/03/09 04:35:07;;;;;;;27.30;9.73;;;;;;;;;;6161684;23;20172;-88
2022/03/09 04:38:12;;;;;;;34.20;10.90;;;;;;;;;;6163103;23;20204;-89
2022/03/09 04:41:17;;;;;;;29.20;10.87;;;;;;;;;;6162347;23;20599;-89
2022/03/09 04:44:23;;;;;;;26.60;10.07;;;;;;;;;;6162528;23;20172;-89
2022/03/09 04:47:30;;;;;;;27.10;10.03;;;;;;;;;;6162777;23;20188;-86
2022/03/09 04:50:35;;;;;;;29.17;9.33;;;;;;;;;;6163124;23;20173;-88
2022/03/09 04:53:40;;;;;;;25.67;9.73;;;;;;;;;;6162131;23;20176;-88
2022/03/09 04:56:45;;;;;;;22.37;9.00;;;;;;;;;;6161157;23;20216;-88
2022/03/09 04:59:52;;;;;;;25.80;10.07;;;;;;;;;;6163179;23;20172;-89
2022/03/09 05:03:02;;;;;;;26.43;9.90;;;;;;;;;;6163426;23;20173;-89
2022/03/09 05:06:07;;;;;;;26.03;9.90;;;;;;;;;;6164561;23;20192;-89
2022/03/09 05:09:12;;;;;;;18.83;8.57;;;;;;;;;;6163936;23;20191;-87
2022/03/09 05:12:18;;;;;;;19.90;8.57;;;;;;;;;;6162889;23;20220;-88
2022/03/09 05:15:25;;;;;;;18.10;7.53;;;;;;;;;;6163686;23;20273;-88
2022/03/09 05:18:29;;;;;;;21.27;9.37;;;;;;;;;;6166186;23;20214;-89
2022/03/09 05:21:36;;;;;;;23.60;8.07;;;;;;;;;;6165355;23;20524;-90
2022/03/09 05:24:40;;;;;;;23.90;8.50;;;;;;;;;;6163402;23;20289;-88
2022/03/09 05:27:46;;;;;;;21.93;8.37;;;;;;;;;;6164695;23;20176;-89
2022/03/09 05:30:52;;;;;;;28.47;9.63;;;;;;;;;;6164015;23;20175;-90
2022/03/09 05:34:01;;;;;;;24.30;10.30;;;;;;;;;;6164850;23;20176;-89
2022/03/09 05:37:06;;;;;;;36.00;9.50;;;;;;;;;;6165380;23;20168;-88
2022/03/09 05:40:11;;;;;;;20.67;9.20;;;;;;;;;;6165874;23;20505;-89
2022/03/09 05:43:16;;;;;;;16.33;7.57;;;;;;;;;;6165628;23;20187;-88
2022/03/09 05:46:23;;;;;;;18.10;7.70;;;;;;;;;;6163704;23;20267;-89
2022/03/09 05:49:28;;;;;;;22.73;8.80;;;;;;;;;;6167344;23;20171;-89
2022/03/09 05:52:37;;;;;;;22.57;8.73;;;;;;;;;;6163514;23;20185;-89
2022/03/09 05:55:42;;;;;;;21.07;8.40;;;;;;;;;;6165451;23;20169;-89
2022/03/09 05:58:47;;;;;;;25.03;8.57;;;;;;;;;;6166004;23;20215;-88
2022/03/09 06:01:53;;;;;;;25.73;9.77;;;;;;;;;;6166245;23;20180;-87
2022/03/09 06:04:59;;;;;;;21.43;7.53;;;;;;;;;;6165288;23;20217;-87
2022/03/09 06:08:05;;;;;;;22.57;9.23;;;;;;;;;;6169098;23;20188;-87
2022/03/09 06:11:10;;;;;;;29.13;10.17;;;;;;;;;;6179535;23;20175;-90
2022/03/09 06:14:15;;;;;;;23.33;8.47;;;;;;;;;;6179125;23;20176;-87
2022/03/09 06:17:21;;;;;;;23.43;9.10;;;;;;;;;;6178490;23;20504;-88
2022/03/09 06:20:26;;;;;;;19.93;8.63;;;;;;;;;;6179496;23;20168;-87
2022/03/09 06:23:32;;;;;;;23.43;8.80;;;;;;;;;;6179580;23;20176;-86
2022/03/09 06:26:37;;;;;;;25.43;8.87;;;;;;;;;;6179147;23;20194;-88
2022/03/09 06:29:42;;;;;;;22.23;9.30;;;;;;;;;;6181775;23;20172;-88
2022/03/09 06:32:50;;;;;;;24.47;8.93;;;;;;;;;;6179896;23;20171;-86
2022/03/09 06:35:55;;;;;;;24.77;9.47;;;;;;;;;;6180554;23;20164;-88
2022/03/09 06:39:05;;;;;;;25.83;9.60;;;;;;;;;;6180739;23;20485;-87
2022/03/09 06:42:11;;;;;;;20.70;8.57;;;;;;;;;;6181988;23;20176;-89
2022/03/09 06:45:17;;;;;;;22.33;8.80;;;;;;;;;;6181296;23;20168;-87
2022/03/09 06:48:24;;;;;;;27.00;9.43;;;;;;;;;;6179745;23;20175;-87
2022/03/09 06:51:30;;;;;;;33.70;11.63;;;;;;;;;;6179159;23;20172;-90
2022/03/09 06:54:35;;;;;;;28.33;11.80;;;;;;;;;;6178222;23;20188;-90
2022/03/09 06:57:41;;;;;;;30.60;9.77;;;;;;;;;;6178147;23;20176;-90
2022/03/09 07:00:46;;;;;;;22.93;7.97;;;;;;;;;;6178518;23;20180;-88
2022/03/09 07:03:53;;;;;;;25.07;9.53;;;;;;;;;;6178068;23;20171;-85
2022/03/09 07:06:58;;;;;;;28.70;10.00;;;;;;;;;;6179529;23;20200;-87
2022/03/09 07:10:02;;;;;;;20.03;9.23;;;;;;;;;;6165807;23;20188;-86
2022/03/09 07:13:07;;;;;;;22.93;8.87;;;;;;;;;;6164104;23;20220;-88
2022/03/09 07:16:13;;;;;;;22.60;9.30;;;;;;;;;;6166478;23;20244;-89
2022/03/09 07:19:19;;;;;;;22.47;9.50;;;;;;;;;;6165494;23;20331;-87
2022/03/09 07:22:24;;;;;;;22.27;8.63;;;;;;;;;;6166396;23;20248;-88
2022/03/09 07:25:29;;;;;;;25.60;10.63;;;;;;;;;;6166980;23;20176;-89
2022/03/09 07:28:35;;;;;;;23.57;9.27;;;;;;;;;;6164782;23;20171;-89
2022/03/09 07:31:41;;;;;;;29.60;12.33;;;;;;;;;;6168110;23;20200;-88
2022/03/09 07:34:49;;;;;;;21.43;9.23;;;;;;;;;;6166453;23;20181;-88
2022/03/09 07:37:55;;;;;;;34.83;13.63;;;;;;;;;;6165913;23;20620;-89
2022/03/09 07:41:00;;;;;;;28.47;9.67;;;;;;;;;;6170454;23;20172;-89
2022/03/09 10:50:21;;;;;;;14.57;5.83;;;;;;;;;;6195908;23;20212;-87
2022/03/09 10:53:31;;;;;;;12.63;5.37;;;;;;;;;;6198255;23;20176;-90
2022/03/09 10:56:37;;;;;;;11.67;5.60;;;;;;;;;;6197519;23;20171;-89
2022/03/09 10:59:46;;;;;;;12.60;5.13;;;;;;;;;;6196317;23;20176;-89
2022/03/09 11:02:52;;;;;;;14.97;5.80;;;;;;;;;;6196672;23;20262;-89
2022/03/09 11:06:00;;;;;;;11.82;4.78;;;;;;;;;;6194901;23;20227;-88
2022/03/09 11:09:05;;;;;;;10.57;4.60;;;;;;;;;;6196326;23;20229;-89
2022/03/09 11:12:11;;;;;;;14.17;5.60;;;;;;;;;;6180509;23;20171;-89
2022/03/09 11:15:17;;;;;;;12.93;5.40;;;;;;;;;;6196526;23;20251;-90
2022/03/09 11:18:24;;;;;;;9.43;4.78;;;;;;;;;;6196820;23;20172;-90
2022/03/09 11:21:36;;;;;;;13.83;5.07;;;;;;;;;;6201601;23;20176;-88
2022/03/09 11:24:42;;;;;;;10.80;5.03;;;;;;;;;;6183063;23;20216;-89
2022/03/09 11:27:50;;;;;;;11.13;3.83;;;;;;;;;;6197045;23;20191;-90
2022/03/09 11:30:56;;;;;;;7.13;3.88;;;;;;;;;;6196814;23;20180;-89
2022/03/09 11:34:01;;;;;;;7.57;3.65;;;;;;;;;;6178933;23;20175;-90
2022/03/09 11:37:08;;;;;;;10.57;3.67;;;;;;;;;;6195059;23;20183;-88
2022/03/09 11:40:14;;;;;;;6.68;3.45;;;;;;;;;;6197864;23;20176;-87
2022/03/09 11:43:30;;;;;;;7.30;3.50;;;;;;;;;;6195666;23;20197;-88
2022/03/09 11:47:01;;;;;;;8.48;3.10;;;;;;;;;;6193953;23;20211;-90
2022/03/09 11:50:09;;;;;;;11.80;2.90;;;;;;;;;;6182071;23;20191;-86
2022/03/09 11:53:16;;;;;;;5.22;2.10;;;;;;;;;;6167794;23;20184;-88
2022/03/09 11:56:36;;;;;;;6.95;2.20;;;;;;;;;;6165158;23;20500;-87
2022/03/09 12:00:09;;;;;;;2.70;1.55;;;;;;;;;;6165414;23;20197;-88
2022/03/09 12:03:36;;;;;;;4.30;2.00;;;;;;;;;;6164715;23;20180;-90
2022/03/09 12:06:42;;;;;;;2.85;1.75;;;;;;;;;;6169344;23;20197;-89
2022/03/09 12:09:58;;;;;;;7.18;3.38;;;;;;;;;;6166812;23;20249;-92
2022/03/09 12:13:15;;;;;;;9.65;4.20;;;;;;;;;;6171050;23;20156;-88
2022/03/09 12:16:22;;;;;;;13.20;3.78;;;;;;;;;;6167527;23;20161;-89
2022/03/09 12:19:27;;;;;;;13.98;4.28;;;;;;;;;;6165780;23;20501;-87
2022/03/09 12:23:02;;;;;;;7.55;2.97;;;;;;;;;;6166618;23;20169;-89
2022/03/09 12:26:09;;;;;;;8.50;2.25;;;;;;;;;;6165194;23;20176;-90
2022/03/09 12:29:29;;;;;;;8.18;2.90;;;;;;;;;;6163784;23;20176;-88
2022/03/09 12:32:41;;;;;;;6.75;3.20;;;;;;;;;;6165530;23;20173;-89
2022/03/09 12:35:47;;;;;;;6.20;3.08;;;;;;;;;;6166344;23;20180;-87
2022/03/09 12:38:52;;;;;;;8.55;3.47;;;;;;;;;;6164068;23;20186;-88
2022/03/09 12:42:00;;;;;;;9.43;3.83;;;;;;;;;;6162381;23;20157;-88
2022/03/09 12:45:05;;;;;;;8.88;3.92;;;;;;;;;;6163021;23;20171;-88
2022/03/09 12:48:10;;;;;;;11.93;5.03;;;;;;;;;;6167313;23;20191;-88
2022/03/09 12:51:15;;;;;;;12.00;5.55;;;;;;;;;;6196409;23;20154;-87
2022/03/09 12:54:31;;;;;;;14.60;6.22;;;;;;;;;;6195086;23;20218;-88
2022/03/09 12:57:38;;;;;;;14.20;5.57;;;;;;;;;;6193997;23;20235;-87
2022/03/09 13:00:43;;;;;;;24.75;6.47;;;;;;;;;;6195007;23;20171;-90
2022/03/09 13:03:48;;;;;;;13.85;6.25;;;;;;;;;;6194731;23;20247;-88
2022/03/09 13:06:55;;;;;;;16.70;6.28;;;;;;;;;;6194578;23;20199;-88
2022/03/09 13:10:05;;;;;;;18.80;6.28;;;;;;;;;;6196320;23;20175;-88
2022/03/09 13:13:12;;;;;;;14.30;5.93;;;;;;;;;;6195636;23;20167;-87
2022/03/09 13:16:18;;;;;;;14.73;5.95;;;;;;;;;;6179716;23;20183;-89
2022/03/09 13:19:23;;;;;;;14.73;6.22;;;;;;;;;;6177434;23;20179;-88
2022/03/09 13:22:28;;;;;;;15.35;5.10;;;;;;;;;;6194439;23;20232;-88
2022/03/09 13:25:35;;;;;;;14.10;6.07;;;;;;;;;;6195408;23;20167;-88
2022/03/09 13:28:41;;;;;;;12.07;5.70;;;;;;;;;;6195755;23;20256;-88
2022/03/09 13:31:49;;;;;;;11.73;5.25;;;;;;;;;;6193013;23;20219;-88
2022/03/09 13:34:56;;;;;;;13.52;4.75;;;;;;;;;;6193429;23;20191;-87
2022/03/09 13:38:02;;;;;;;7.95;3.88;;;;;;;;;;6194374;23;20168;-88
2022/03/09 13:41:07;;;;;;;8.98;4.32;;;;;;;;;;6195067;23;20172;-87
2022/03/09 13:44:27;;;;;;;16.38;4.50;;;;;;;;;;6180054;23;20682;-89
2022/03/09 13:47:32;;;;;;;9.02;4.07;;;;;;;;;;6193873;23;20292;-88
2022/03/09 13:50:42;;;;;;;8.77;3.58;;;;;;;;;;6196226;23;20156;-89
2022/03/09 13:53:47;;;;;;;7.20;3.63;;;;;;;;;;6195859;23;20353;-87
2022/03/09 13:57:10;;;;;;;11.20;3.97;;;;;;;;;;6196523;23;20168;-88
2022/03/09 14:00:28;;;;;;;8.80;3.83;;;;;;;;;;6177516;23;20179;-89
2022/03/09 14:03:41;;;;;;;14.82;4.70;;;;;;;;;;6195355;23;20192;-90
2022/03/09 14:06:56;;;;;;;13.35;4.40;;;;;;;;;;6194919;23;20195;-89
2022/03/09 14:10:11;;;;;;;19.33;4.95;;;;;;;;;;6195390;23;20252;-87
2022/03/09 14:13:17;;;;;;;13.05;4.47;;;;;;;;;;6178163;23;20280;-89
2022/03/09 14:16:24;;;;;;;12.80;4.25;;;;;;;;;;6196665;23;20167;-90
2022/03/09 14:19:29;;;;;;;9.45;5.32;;;;;;;;;;6201628;23;20187;-90
2022/03/09 14:22:41;;;;;;;6.57;3.42;;;;;;;;;;6198171;23;20184;-89
2022/03/09 14:25:47;;;;;;;12.68;4.07;;;;;;;;;;6196832;23;20175;-87
2022/03/09 14:28:52;;;;;;;10.23;4.05;;;;;;;;;;6196562;23;20167;-89
2022/03/09 14:31:58;;;;;;;8.52;3.70;;;;;;;;;;6196377;23;20175;-89
2022/03/09 14:35:03;;;;;;;8.80;4.22;;;;;;;;;;6183407;23;20172;-87
2022/03/09 14:38:09;;;;;;;5.78;3.50;;;;;;;;;;6197207;23;20728;-88
2022/03/09 14:41:15;;;;;;;7.80;3.83;;;;;;;;;;6182533;23;20175;-90
2022/03/09 14:44:20;;;;;;;8.02;3.33;;;;;;;;;;6200286;23;20179;-87
2022/03/09 14:47:28;;;;;;;8.23;3.35;;;;;;;;;;6198509;23;20192;-89
2022/03/09 14:50:34;;;;;;;6.78;3.70;;;;;;;;;;6170139;23;20169;-88
2022/03/09 18:01:24;;;;;;;28.13;11.00;;;;;;;;;;6173361;23;20216;-90
2022/03/09 18:04:31;;;;;;;22.07;6.47;;;;;;;;;;6182504;23;20187;-88
2022/03/09 18:07:37;;;;;;;15.97;6.30;;;;;;;;;;6178970;23;20203;-89
2022/03/09 18:10:42;;;;;;;17.43;7.57;;;;;;;;;;6198321;23;20172;-87
2022/03/09 18:13:47;;;;;;;19.97;8.30;;;;;;;;;;6180331;23;20218;-90
2022/03/09 18:16:54;;;;;;;23.57;8.07;;;;;;;;;;6185042;23;20229;-91
2022/03/09 18:20:00;;;;;;;16.93;6.70;;;;;;;;;;6184083;23;20167;-89
2022/03/09 18:23:05;;;;;;;18.73;6.90;;;;;;;;;;6202634;23;20559;-90
2022/03/09 18:26:10;;;;;;;18.87;7.20;;;;;;;;;;6180554;23;20167;-90
2022/03/09 18:29:15;;;;;;;18.03;6.93;;;;;;;;;;6199916;23;20278;-90
2022/03/09 18:32:23;;;;;;;21.73;7.40;;;;;;;;;;6182830;23;20172;-90
2022/03/09 18:35:28;;;;;;;18.60;7.70;;;;;;;;;;6199435;23;20171;-89
2022/03/09 18:38:34;;;;;;;23.97;7.93;;;;;;;;;;6198325;23;20315;-89
2022/03/09 18:41:43;;;;;;;21.83;8.87;;;;;;;;;;6200152;23;20192;-89
2022/03/09 18:44:52;;;;;;;23.73;10.00;;;;;;;;;;6200099;23;20172;-88
2022/03/09 18:47:58;;;;;;;22.03;7.93;;;;;;;;;;6182806;23;20172;-88
2022/03/09 18:51:03;;;;;;;18.73;6.60;;;;;;;;;;6200035;23;20187;-88
2022/03/09 18:54:11;;;;;;;19.20;7.47;;;;;;;;;;6195707;23;20180;-90
2022/03/09 18:57:18;;;;;;;18.53;7.23;;;;;;;;;;6200053;23;20195;-89
2022/03/09 19:00:24;;;;;;;24.23;7.87;;;;;;;;;;6198111;23;20176;-88
2022/03/09 19:03:31;;;;;;;18.83;7.67;;;;;;;;;;6179237;23;20199;-90
2022/03/09 19:06:37;;;;;;;20.27;7.50;;;;;;;;;;6179639;23;20168;-89
2022/03/09 19:09:42;;;;;;;16.00;6.50;;;;;;;;;;6180025;23;20223;-89
2022/03/09 19:12:47;;;;;;;18.60;6.70;;;;;;;;;;6195636;23;20164;-89
2022/03/09 19:15:52;;;;;;;16.93;6.77;;;;;;;;;;6195667;23;20171;-88
2022/03/09 19:18:59;;;;;;;18.17;6.83;;;;;;;;;;6179225;23;20200;-88
2022/03/09 19:22:04;;;;;;;19.40;6.03;;;;;;;;;;6199845;23;20171;-88
2022/03/09 19:25:11;;;;;;;14.53;6.27;;;;;;;;;;6198818;23;20300;-89
2022/03/09 19:28:16;;;;;;;16.30;6.60;;;;;;;;;;6178341;23;20171;-90
2022/03/09 19:31:22;;;;;;;15.17;6.67;;;;;;;;;;6196879;23;20247;-89
2022/03/09 19:34:30;;;;;;;17.30;7.10;;;;;;;;;;6197320;23;20188;-89
2022/03/09 19:37:40;;;;;;;23.20;7.10;;;;;;;;;;6179594;23;20241;-90
2022/03/09 19:40:45;;;;;;;17.97;8.00;;;;;;;;;;6179908;23;20180;-87
2022/03/09 19:43:51;;;;;;;21.03;7.90;;;;;;;;;;6196579;23;20176;-87
2022/03/09 19:46:56;;;;;;;20.97;7.77;;;;;;;;;;6182829;23;20195;-88
2022/03/09 19:50:03;;;;;;;20.87;7.60;;;;;;;;;;6197736;23;20619;-89
2022/03/09 19:53:08;;;;;;;33.67;8.53;;;;;;;;;;6180487;23;20214;-90
2022/03/09 19:56:13;;;;;;;21.23;7.20;;;;;;;;;;6197266;23;20171;-87
2022/03/09 19:59:18;;;;;;;23.73;7.57;;;;;;;;;;6197964;23;20186;-88
2022/03/09 20:02:23;;;;;;;15.37;6.13;;;;;;;;;;6183990;23;20236;-90
2022/03/09 20:05:30;;;;;;;16.47;6.97;;;;;;;;;;6167741;23;20300;-86
2022/03/09 20:08:35;;;;;;;18.70;7.00;;;;;;;;;;6167884;23;20177;-87
2022/03/09 20:11:40;;;;;;;20.57;6.57;;;;;;;;;;6166628;23;20198;-89
2022/03/09 20:14:45;;;;;;;18.27;7.10;;;;;;;;;;6169037;23;20164;-85
2022/03/09 20:21:25;;;;;;;18.57;6.97;;;;;;;;;;6166335;23;20262;-90
2022/03/09 20:24:31;;;;;;;18.23;7.17;;;;;;;;;;6165493;23;20169;-88
2022/03/09 20:27:36;;;;;;;19.63;6.67;;;;;;;;;;6165930;23;20168;-88
2022/03/09 20:30:41;;;;;;;16.73;6.97;;;;;;;;;;6164821;23;20176;-90
2022/03/09 23:14:37;;;;;;;21.90;6.90;;;;;;;;;;6169530;23;20556;-87
2022/03/09 23:18:08;;;;;;;22.90;7.27;;;;;;;;;;6197322;23;20171;-88
2022/03/09 23:21:13;;;;;;;17.67;6.70;;;;;;;;;;6197785;23;20351;-89
2022/03/09 23:24:18;;;;;;;17.53;6.77;;;;;;;;;;6180455;23;20243;-89
2022/03/09 23:27:23;;;;;;;15.07;6.73;;;;;;;;;;6196101;23;20175;-90
2022/03/09 23:30:30;;;;;;;18.73;7.10;;;;;;;;;;6177296;23;20238;-89
2022/03/09 23:33:35;;;;;;;21.93;7.43;;;;;;;;;;6197321;23;20168;-89
2022/03/09 23:36:40;;;;;;;18.17;7.13;;;;;;;;;;6196746;23;20499;-89
2022/03/09 23:39:45;;;;;;;19.50;6.57;;;;;;;;;;6198460;23;20227;-90
2022/03/09 23:42:50;;;;;;;18.03;7.27;;;;;;;;;;6197396;23;20171;-88
2022/03/09 23:45:57;;;;;;;19.80;7.23;;;;;;;;;;6179307;23;20172;-88
2022/03/09 23:49:04;;;;;;;22.57;8.13;;;;;;;;;;6197977;23;20168;-89
2022/03/09 23:52:09;;;;;;;21.43;7.73;;;;;;;;;;6197506;23;20190;-88
2022/03/09 23:55:13;;;;;;;21.63;7.27;;;;;;;;;;6178493;23;20179;-87
2022/03/09 23:58:19;;;;;;;21.37;7.80;;;;;;;;;;6196228;23;20235;-88
